createdAt,value
2023-11-08T00:01:37.618Z,7.29
2023-11-08T00:04:04.424Z,7.42
2023-11-08T00:06:31.180Z,7.23
2023-11-08T00:08:59.418Z,6.88
2023-11-08T00:11:26.495Z,7.50
2023-11-08T00:13:53.254Z,7.44
2023-11-08T00:16:19.893Z,7.69
2023-11-08T00:18:46.550Z,7.42
2023-11-08T00:21:13.310Z,7.82
2023-11-08T00:23:41.019Z,8.15
2023-11-08T00:26:08.107Z,7.54
2023-11-08T00:28:35.360Z,8.38
2023-11-08T00:31:02.734Z,9.06
2023-11-08T00:33:29.434Z,8.70
2023-11-08T00:35:56.172Z,9.31
2023-11-08T00:38:23.566Z,8.96
2023-11-08T00:40:50.313Z,9.20
2023-11-08T00:43:17.035Z,9.16
2023-11-08T00:45:44.052Z,9.44
2023-11-08T00:48:10.988Z,9.45
2023-11-08T00:50:37.675Z,10.15
2023-11-08T00:53:04.961Z,9.75
2023-11-08T00:55:33.945Z,9.28
2023-11-08T00:58:00.659Z,9.67
2023-11-08T01:00:27.294Z,10.15
2023-11-08T01:02:54.634Z,10.16
2023-11-08T01:05:21.430Z,9.74
2023-11-08T01:07:48.109Z,9.74
2023-11-08T01:10:17.550Z,8.90
2023-11-08T01:12:45.501Z,9.71
2023-11-08T01:15:12.450Z,9.54
2023-11-08T01:17:39.220Z,9.92
2023-11-08T01:20:06.786Z,10.69
2023-11-08T01:22:33.786Z,10.58
2023-11-08T01:25:00.591Z,9.96
2023-11-08T01:27:27.411Z,10.14
2023-11-08T01:29:54.052Z,10.64
2023-11-08T01:32:20.698Z,10.57
2023-11-08T01:34:47.380Z,10.14
2023-11-08T01:37:13.990Z,9.91
2023-11-08T01:39:40.643Z,10.27
2023-11-08T01:42:07.307Z,9.58
2023-11-08T01:44:35.338Z,10.04
2023-11-08T01:47:03.945Z,10.18
2023-11-08T01:49:30.944Z,10.63
2023-11-08T01:51:58.445Z,10.83
2023-11-08T01:54:27.477Z,10.42
2023-11-08T01:56:56.088Z,10.68
2023-11-08T01:59:25.494Z,10.82
2023-11-08T02:01:52.616Z,10.33
2023-11-08T02:04:20.450Z,10.13
2023-11-08T02:06:47.181Z,10.52
2023-11-08T02:09:14.616Z,10.23
2023-11-08T02:11:42.364Z,10.11
2023-11-08T02:14:09.233Z,10.36
2023-11-08T02:16:36.411Z,10.46
2023-11-08T02:19:04.691Z,9.87
2023-11-08T02:21:31.306Z,10.05
2023-11-08T02:23:58.907Z,10.23
2023-11-08T02:26:25.562Z,10.42
2023-11-08T02:28:52.181Z,11.62
2023-11-08T02:31:19.920Z,11.93
2023-11-08T02:33:46.623Z,12.90
2023-11-08T02:36:15.362Z,12.82
2023-11-08T02:38:42.211Z,13.39
2023-11-08T02:41:09.838Z,13.94
2023-11-08T02:43:37.504Z,14.63
2023-11-08T02:46:04.543Z,13.91
2023-11-08T02:48:31.727Z,14.34
2023-11-08T02:50:58.384Z,14.79
2023-11-08T02:53:25.022Z,15.21
2023-11-08T02:55:51.678Z,14.52
2023-11-08T02:58:18.352Z,14.66
2023-11-08T03:00:46.200Z,13.51
2023-11-08T03:03:14.725Z,13.53
2023-11-08T03:05:41.510Z,12.79
2023-11-08T03:08:08.390Z,12.30
2023-11-08T03:10:36.721Z,13.00
2023-11-08T03:13:05.190Z,11.81
2023-11-08T03:15:33.380Z,11.50
2023-11-08T03:18:00.111Z,11.23
2023-11-08T03:20:26.842Z,11.73
2023-11-08T03:22:53.460Z,11.61
2023-11-08T03:25:20.064Z,12.40
2023-11-08T03:27:48.178Z,11.60
2023-11-08T03:30:17.380Z,12.46
2023-11-08T03:32:45.109Z,11.80
2023-11-08T03:35:13.614Z,12.31
2023-11-08T03:37:41.791Z,12.35
2023-11-08T03:40:13.424Z,11.53
2023-11-08T03:42:41.626Z,11.92
2023-11-08T03:45:09.945Z,11.34
2023-11-08T03:47:38.490Z,11.06
2023-11-08T03:50:06.385Z,10.81
2023-11-08T03:52:33.115Z,11.37
2023-11-08T03:55:00.624Z,10.97
2023-11-08T03:57:28.269Z,10.93
2023-11-08T03:59:55.613Z,11.54
2023-11-08T04:02:23.160Z,11.57
2023-11-08T04:04:50.817Z,11.58
2023-11-08T04:07:19.559Z,11.20
2023-11-08T04:09:46.572Z,12.02
2023-11-08T04:12:13.416Z,11.54
2023-11-08T04:14:40.889Z,12.34
2023-11-08T04:17:12.136Z,12.39
2023-11-08T04:19:39.224Z,12.57
2023-11-08T04:22:07.162Z,12.56
2023-11-08T04:24:34.961Z,12.30
2023-11-08T04:27:04.431Z,12.74
2023-11-08T04:29:34.416Z,13.29
2023-11-08T04:32:01.059Z,13.57
2023-11-08T04:34:27.793Z,13.55
2023-11-08T04:36:54.538Z,11.71
2023-11-08T04:39:23.257Z,12.03
2023-11-08T04:41:51.002Z,12.48
2023-11-08T04:44:18.235Z,12.49
2023-11-08T04:46:45.389Z,11.94
2023-11-08T04:49:13.451Z,11.21
2023-11-08T04:51:40.782Z,10.16
2023-11-08T04:54:07.731Z,10.97
2023-11-08T04:56:34.419Z,10.55
2023-11-08T04:59:01.134Z,10.57
2023-11-08T05:01:29.835Z,9.63
2023-11-08T05:03:58.667Z,9.72
2023-11-08T05:06:25.393Z,9.41
2023-11-08T05:08:52.076Z,9.03
2023-11-08T05:11:18.954Z,8.60
2023-11-08T05:13:47.445Z,8.59
2023-11-08T05:16:14.725Z,8.28
2023-11-08T05:18:41.909Z,8.43
2023-11-08T05:21:12.481Z,7.79
2023-11-08T05:23:39.121Z,8.14
2023-11-08T05:26:07.847Z,8.21
2023-11-08T05:28:34.502Z,8.19
2023-11-08T05:31:01.124Z,8.05
2023-11-08T05:33:27.876Z,7.42
2023-11-08T05:35:54.706Z,8.06
2023-11-08T05:38:21.757Z,8.13
2023-11-08T05:40:48.427Z,7.99
2023-11-08T05:43:15.057Z,7.96
2023-11-08T05:45:41.667Z,8.49
2023-11-08T05:48:08.454Z,8.09
2023-11-08T05:50:35.193Z,7.62
2023-11-08T05:53:01.807Z,7.92
2023-11-08T05:55:28.425Z,7.40
2023-11-08T05:57:56.910Z,8.01
2023-11-08T06:00:23.792Z,7.94
2023-11-08T06:02:51.196Z,7.36
2023-11-08T06:05:17.988Z,7.88
2023-11-08T06:07:45.358Z,7.82
2023-11-08T06:10:12.420Z,7.68
2023-11-08T06:12:39.117Z,7.53
2023-11-08T06:15:06.847Z,7.50
2023-11-08T06:17:33.718Z,7.44
2023-11-08T06:20:00.691Z,7.40
2023-11-08T06:22:27.415Z,8.01
2023-11-08T06:24:54.164Z,8.11
2023-11-08T06:27:20.890Z,7.60
2023-11-08T06:29:47.569Z,7.75
2023-11-08T06:32:14.397Z,7.87
2023-11-08T06:34:41.917Z,7.67
2023-11-08T06:37:10.913Z,7.67
2023-11-08T06:39:38.822Z,7.03
2023-11-08T06:42:06.735Z,7.04
2023-11-08T06:44:33.544Z,6.62
2023-11-08T06:47:00.194Z,6.50
2023-11-08T06:49:26.966Z,6.71
2023-11-08T06:51:53.721Z,6.47
2023-11-08T06:54:21.147Z,6.33
2023-11-08T06:56:47.789Z,6.36
2023-11-08T06:59:15.013Z,6.10
2023-11-08T07:01:42.662Z,6.40
2023-11-08T07:04:09.445Z,6.24
2023-11-08T07:06:36.173Z,5.90
2023-11-08T07:09:03.766Z,6.05
2023-11-08T07:11:30.453Z,6.00
2023-11-08T07:13:57.177Z,5.57
2023-11-08T07:16:23.790Z,5.65
2023-11-08T07:18:50.908Z,5.39
2023-11-08T07:21:21.682Z,5.09
2023-11-08T07:23:49.172Z,5.20
2023-11-08T07:26:17.122Z,5.12
2023-11-08T07:28:45.860Z,4.39
2023-11-08T07:31:13.428Z,4.46
2023-11-08T07:33:41.129Z,4.54
2023-11-08T07:36:08.192Z,4.00
2023-11-08T07:38:35.169Z,4.17
2023-11-08T07:41:03.362Z,3.86
2023-11-08T07:43:30.869Z,4.04
2023-11-08T07:45:59.818Z,3.80
2023-11-08T07:48:27.559Z,3.61
2023-11-08T07:50:55.155Z,3.92
2023-11-08T07:53:22.584Z,4.43
2023-11-08T07:55:50.700Z,4.24
2023-11-08T07:58:20.750Z,3.75
2023-11-08T08:00:48.022Z,3.64
2023-11-08T08:03:15.193Z,3.80
2023-11-08T08:05:48.206Z,4.20
2023-11-08T08:08:15.440Z,3.84
2023-11-08T08:10:46.164Z,3.87
2023-11-08T08:13:23.474Z,3.82
2023-11-08T08:15:54.952Z,3.78
2023-11-08T08:18:22.031Z,3.71
2023-11-08T08:20:48.906Z,3.56
2023-11-08T08:23:15.668Z,3.52
2023-11-08T08:25:43.050Z,3.28
2023-11-08T08:28:09.764Z,3.36
2023-11-08T08:30:36.969Z,3.34
2023-11-08T08:33:06.778Z,3.56
2023-11-08T08:35:34.230Z,3.06
2023-11-08T08:38:01.170Z,3.22
2023-11-08T08:40:28.040Z,3.14
2023-11-08T08:42:55.540Z,2.81
2023-11-08T08:45:22.474Z,2.94
2023-11-08T08:47:53.230Z,2.81
2023-11-08T08:50:20.044Z,3.03
2023-11-08T08:52:46.763Z,2.95
2023-11-08T08:55:16.360Z,3.20
2023-11-08T08:57:46.548Z,2.97
2023-11-08T09:00:15.843Z,2.83
2023-11-08T09:02:45.558Z,2.77
2023-11-08T09:05:13.785Z,3.24
2023-11-08T09:07:40.467Z,2.97
2023-11-08T09:10:08.063Z,3.01
2023-11-08T09:12:34.795Z,2.87
2023-11-08T09:15:03.964Z,3.31
2023-11-08T09:17:30.632Z,3.14
2023-11-08T09:19:58.451Z,2.94
2023-11-08T09:22:25.470Z,3.06
2023-11-08T09:24:52.151Z,2.99
2023-11-08T09:27:19.995Z,3.30
2023-11-08T09:29:46.812Z,3.21
2023-11-08T09:32:13.558Z,2.87
2023-11-08T09:34:40.331Z,3.16
2023-11-08T09:37:07.315Z,3.18
2023-11-08T09:39:34.010Z,2.90
2023-11-08T09:42:00.652Z,3.02
2023-11-08T09:44:28.363Z,3.13
2023-11-08T09:46:56.307Z,3.08
2023-11-08T09:49:28.457Z,2.87
2023-11-08T09:51:56.671Z,2.96
2023-11-08T09:54:23.770Z,3.13
2023-11-08T09:56:50.538Z,2.71
2023-11-08T09:59:18.260Z,2.66
2023-11-08T10:01:46.559Z,2.94
2023-11-08T10:04:22.140Z,2.65
2023-11-08T10:06:52.224Z,2.77
2023-11-08T10:09:35.323Z,3.05
2023-11-08T10:12:04.057Z,2.95
2023-11-08T10:14:38.390Z,3.30
2023-11-08T10:17:05.637Z,2.90
2023-11-08T10:19:45.725Z,3.29
2023-11-08T10:22:23.146Z,3.01
2023-11-08T10:24:58.926Z,2.74
2023-11-08T10:27:27.128Z,2.90
2023-11-08T10:29:57.771Z,2.89
2023-11-08T10:32:26.335Z,3.29
2023-11-08T10:34:53.365Z,2.95
2023-11-08T10:37:28.259Z,3.05
2023-11-08T10:39:58.633Z,3.16
2023-11-08T10:42:28.451Z,2.96
2023-11-08T10:45:11.488Z,3.28
2023-11-08T10:47:40.292Z,2.94
2023-11-08T10:50:10.105Z,2.78
2023-11-08T10:52:40.725Z,3.98
2023-11-08T10:55:08.349Z,3.04
2023-11-08T10:57:35.531Z,3.04
2023-11-08T11:00:05.725Z,3.34
2023-11-08T11:02:42.230Z,3.10
2023-11-08T11:05:10.881Z,2.99
2023-11-08T11:07:42.073Z,3.27
2023-11-08T11:10:10.784Z,3.07
2023-11-08T11:13:10.947Z,2.99
2023-11-08T11:15:59.571Z,3.07
2023-11-08T11:18:42.265Z,3.42
2023-11-08T11:21:24.092Z,3.16
2023-11-08T11:23:50.989Z,3.41
2023-11-08T11:26:45.414Z,3.11
2023-11-08T11:29:18.954Z,3.62
2023-11-08T11:31:46.354Z,3.20
2023-11-08T11:34:22.238Z,3.68
2023-11-08T11:37:14.513Z,3.46
2023-11-08T11:39:46.130Z,3.07
2023-11-08T11:42:21.205Z,3.32
2023-11-08T11:44:58.886Z,3.66
2023-11-08T11:47:34.406Z,3.51
2023-11-08T11:50:04.406Z,3.54
2023-11-08T11:52:33.567Z,3.47
2023-11-08T11:55:02.431Z,3.16
2023-11-08T11:57:30.969Z,3.14
2023-11-08T11:59:59.951Z,3.10
2023-11-08T12:02:30.932Z,2.98
2023-11-08T12:05:01.622Z,2.95
2023-11-08T12:07:28.749Z,2.84
2023-11-08T12:09:56.043Z,2.98
2023-11-08T12:12:30.049Z,3.11
2023-11-08T12:15:01.154Z,2.69
2023-11-08T12:17:28.268Z,2.88
2023-11-08T12:19:55.751Z,2.90
2023-11-08T12:22:22.686Z,3.20
2023-11-08T12:24:50.452Z,2.95
2023-11-08T12:27:18.146Z,2.63
2023-11-08T12:29:45.002Z,3.44
2023-11-08T12:32:13.158Z,2.95
2023-11-08T12:34:41.711Z,2.89
2023-11-08T12:37:09.388Z,2.77
2023-11-08T12:39:36.778Z,3.09
2023-11-08T12:42:14.215Z,2.95
2023-11-08T12:44:49.891Z,2.57
2023-11-08T12:47:16.960Z,2.89
2023-11-08T12:49:45.107Z,3.03
2023-11-08T12:52:13.785Z,2.99
2023-11-08T12:54:40.568Z,2.97
2023-11-08T12:57:07.301Z,2.73
2023-11-08T12:59:35.747Z,2.91
2023-11-08T13:02:02.356Z,2.96
2023-11-08T13:04:29.816Z,2.58
2023-11-08T13:06:56.623Z,2.67
2023-11-08T13:09:26.742Z,2.59
2023-11-08T13:11:55.550Z,2.75
2023-11-08T13:14:23.799Z,2.58
2023-11-08T13:16:50.671Z,2.63
2023-11-08T13:19:17.772Z,2.79
2023-11-08T13:21:44.722Z,2.60
2023-11-08T13:24:11.646Z,2.50
2023-11-08T13:26:38.655Z,2.55
2023-11-08T13:29:07.749Z,2.31
2023-11-08T13:31:35.057Z,2.75
2023-11-08T13:34:02.023Z,2.73
2023-11-08T13:36:29.656Z,2.66
2023-11-08T13:38:57.585Z,2.68
2023-11-08T13:41:24.810Z,2.66
2023-11-08T13:43:51.532Z,2.76
2023-11-08T13:46:18.348Z,2.23
2023-11-08T13:48:45.095Z,2.36
2023-11-08T13:51:11.986Z,2.50
2023-11-08T13:53:39.267Z,2.43
2023-11-08T13:56:07.415Z,2.40
2023-11-08T13:58:35.964Z,2.31
2023-11-08T14:01:16.721Z,2.49
2023-11-08T14:03:43.787Z,2.11
2023-11-08T14:06:11.761Z,2.17
2023-11-08T14:08:39.130Z,2.30
2023-11-08T14:11:06.093Z,2.15
2023-11-08T14:13:32.915Z,2.41
2023-11-08T14:15:59.670Z,2.15
2023-11-08T14:18:26.326Z,2.32
2023-11-08T14:20:55.979Z,2.28
2023-11-08T14:23:22.629Z,2.10
2023-11-08T14:25:51.757Z,2.38
2023-11-08T14:28:19.808Z,2.34
2023-11-08T14:30:47.628Z,2.69
2023-11-08T14:33:16.606Z,2.29
2023-11-08T14:35:43.686Z,2.55
2023-11-08T14:38:11.833Z,2.41
2023-11-08T14:40:39.206Z,2.41
2023-11-08T14:43:05.936Z,2.40
2023-11-08T14:45:33.188Z,2.41
2023-11-08T14:48:00.382Z,2.26
2023-11-08T14:50:27.252Z,2.28
2023-11-08T14:52:54.131Z,2.11
2023-11-08T14:55:20.955Z,2.14
2023-11-08T14:57:47.989Z,2.32
2023-11-08T15:00:16.802Z,2.48
2023-11-08T15:02:43.772Z,2.02
2023-11-08T15:05:10.445Z,2.47
2023-11-08T15:09:42.712Z,2.19
2023-11-08T15:10:24.004Z,2.44
2023-11-08T15:12:51.406Z,2.42
2023-11-08T15:15:19.027Z,2.33
2023-11-08T15:17:46.164Z,2.55
2023-11-08T15:20:13.020Z,2.26
2023-11-08T15:22:39.995Z,2.16
2023-11-08T15:25:07.244Z,2.48
2023-11-08T15:27:34.281Z,2.03
2023-11-08T15:30:01.606Z,2.47
2023-11-08T15:32:28.874Z,2.48
2023-11-08T15:34:55.810Z,2.31
2023-11-08T15:37:22.819Z,2.41
2023-11-08T15:39:50.664Z,2.11
2023-11-08T15:42:17.424Z,2.59
2023-11-08T15:44:44.226Z,2.40
2023-11-08T15:47:10.872Z,2.17
2023-11-08T15:49:37.505Z,2.26
2023-11-08T15:52:04.585Z,2.65
2023-11-08T15:54:31.336Z,2.48
2023-11-08T15:56:57.961Z,2.61
2023-11-08T15:59:24.621Z,2.81
2023-11-08T16:01:52.610Z,2.91
2023-11-08T16:04:19.502Z,2.89
2023-11-08T16:06:46.679Z,2.21
2023-11-08T16:09:14.012Z,2.44
2023-11-08T16:11:40.940Z,2.77
2023-11-08T16:14:08.138Z,2.73
2023-11-08T16:16:42.777Z,2.63
2023-11-08T16:19:10.929Z,2.85
2023-11-08T16:21:38.561Z,3.38
2023-11-08T16:24:05.569Z,3.17
2023-11-08T16:26:32.873Z,3.33
2023-11-08T16:28:59.617Z,3.27
2023-11-08T16:32:31.727Z,3.32
2023-11-08T16:34:15.970Z,3.14
2023-11-08T16:36:42.884Z,3.05
2023-11-08T16:39:10.864Z,3.11
2023-11-08T16:41:41.444Z,3.22
2023-11-08T16:44:11.823Z,3.43
2023-11-08T16:46:39.339Z,2.96
2023-11-08T16:49:06.574Z,3.12
2023-11-08T16:51:33.282Z,3.63
2023-11-08T16:53:59.928Z,3.01
2023-11-08T16:56:26.695Z,3.23
2023-11-08T16:59:00.799Z,3.32
2023-11-08T17:01:30.690Z,2.78
2023-11-08T17:03:57.983Z,3.01
2023-11-08T17:06:24.869Z,3.14
2023-11-08T17:08:52.066Z,3.26
2023-11-08T17:11:18.707Z,3.31
2023-11-08T17:13:45.344Z,3.35
2023-11-08T17:16:12.825Z,3.11
2023-11-08T17:18:39.583Z,3.21
2023-11-08T17:21:06.233Z,3.09
2023-11-08T17:23:32.816Z,3.22
2023-11-08T17:25:59.488Z,3.33
2023-11-08T17:28:26.284Z,3.16
2023-11-08T17:30:53.017Z,3.15
2023-11-08T17:33:19.761Z,3.01
2023-11-08T17:35:47.381Z,3.08
2023-11-08T17:38:14.202Z,3.04
2023-11-08T17:40:40.852Z,3.30
2023-11-08T17:43:08.099Z,3.48
2023-11-08T17:45:35.020Z,3.07
2023-11-08T17:48:01.892Z,3.46
2023-11-08T17:50:28.707Z,3.13
2023-11-08T17:52:57.502Z,3.49
2023-11-08T17:55:24.296Z,3.31
2023-11-08T17:57:51.008Z,3.52
2023-11-08T18:00:18.019Z,3.74
2023-11-08T18:02:44.732Z,3.36
2023-11-08T18:05:11.826Z,3.41
2023-11-08T18:07:38.510Z,3.32
2023-11-08T18:10:05.800Z,3.47
2023-11-08T18:12:32.529Z,3.56
2023-11-08T18:15:01.238Z,3.56
2023-11-08T18:17:31.424Z,3.35
2023-11-08T18:19:59.608Z,3.23
2023-11-08T18:22:26.225Z,3.30
2023-11-08T18:24:52.866Z,3.23
2023-11-08T18:27:19.545Z,3.38
2023-11-08T18:29:47.597Z,3.63
2023-11-08T18:32:14.217Z,3.64
2023-11-08T18:34:41.285Z,3.12
2023-11-08T18:37:08.913Z,3.26
2023-11-08T18:39:38.684Z,3.29
2023-11-08T18:42:05.649Z,3.47
2023-11-08T18:44:32.262Z,3.17
2023-11-08T18:46:58.910Z,3.40
2023-11-08T18:49:25.637Z,3.22
2023-11-08T18:51:52.380Z,3.27
2023-11-08T18:54:19.097Z,3.08
2023-11-08T18:56:45.746Z,2.79
2023-11-08T18:59:13.359Z,2.71
2023-11-08T19:01:40.082Z,3.15
2023-11-08T19:04:07.320Z,2.98
2023-11-08T19:06:34.270Z,2.86
2023-11-08T19:09:00.996Z,2.96
2023-11-08T19:11:29.304Z,3.02
2023-11-08T19:13:55.952Z,3.15
2023-11-08T19:16:22.611Z,2.81
2023-11-08T19:18:49.382Z,2.89
2023-11-08T19:21:19.241Z,2.65
2023-11-08T19:23:45.948Z,3.17
2023-11-08T19:26:12.560Z,3.07
2023-11-08T19:28:39.255Z,2.83
2023-11-08T19:31:05.908Z,2.99
2023-11-08T19:33:32.654Z,3.11
2023-11-08T19:36:00.424Z,2.90
2023-11-08T19:38:28.253Z,2.91
2023-11-08T19:40:58.077Z,3.15
2023-11-08T19:43:28.109Z,3.31
2023-11-08T19:45:54.963Z,3.16
2023-11-08T19:48:21.634Z,3.11
2023-11-08T19:50:48.539Z,3.26
2023-11-08T19:53:15.206Z,3.11
2023-11-08T19:55:42.089Z,3.15
2023-11-08T19:58:10.150Z,3.36
2023-11-08T20:00:36.889Z,3.43
2023-11-08T20:03:04.567Z,3.49
2023-11-08T20:05:31.659Z,3.38
2023-11-08T20:07:58.714Z,3.47
2023-11-08T20:10:28.424Z,3.39
2023-11-08T20:12:55.158Z,3.58
2023-11-08T20:15:22.740Z,3.03
2023-11-08T20:17:49.502Z,3.32
2023-11-08T20:20:16.234Z,3.31
2023-11-08T20:22:43.166Z,3.41
2023-11-08T20:25:10.687Z,3.55
2023-11-08T20:27:38.115Z,3.39
2023-11-08T20:30:08.166Z,3.09
2023-11-08T20:32:37.010Z,3.00
2023-11-08T20:35:07.425Z,3.33
2023-11-08T20:37:35.740Z,3.43
2023-11-08T20:40:02.956Z,3.35
2023-11-08T20:42:29.716Z,3.19
2023-11-08T20:44:56.412Z,3.27
2023-11-08T20:47:23.107Z,3.08
2023-11-08T20:49:49.926Z,2.92
2023-11-08T20:52:17.172Z,3.26
2023-11-08T20:54:44.186Z,2.87
2023-11-08T20:57:12.360Z,2.84
2023-11-08T20:59:39.516Z,11.66
2023-11-08T21:02:07.534Z,10.21
2023-11-08T21:04:34.243Z,11.46
2023-11-08T21:07:01.373Z,7.72
2023-11-08T21:09:28.559Z,17.52
2023-11-08T21:11:55.675Z,24.55
2023-11-08T21:14:23.943Z,83.91
2023-11-08T21:16:51.044Z,10.88
2023-11-08T21:19:17.862Z,22.86
2023-11-08T21:21:44.976Z,13.50
2023-11-08T21:24:11.711Z,2.38
2023-11-08T21:26:38.529Z,2.46
2023-11-08T21:29:05.248Z,2.69
2023-11-08T21:31:31.862Z,2.61
2023-11-08T21:33:58.543Z,2.22
2023-11-08T21:36:25.267Z,2.16
2023-11-08T21:38:51.913Z,2.20
2023-11-08T21:41:18.587Z,2.15
2023-11-08T21:43:45.297Z,2.01
2023-11-08T21:46:11.950Z,2.10
2023-11-08T21:48:38.668Z,2.22
2023-11-08T21:51:06.628Z,2.07
2023-11-08T21:53:33.445Z,2.20
2023-11-08T21:56:01.082Z,2.23
2023-11-08T21:58:27.931Z,2.44
2023-11-08T22:00:55.867Z,2.21
2023-11-08T22:03:23.670Z,2.17
2023-11-08T22:05:51.316Z,1.90
2023-11-08T22:08:19.000Z,1.92
2023-11-08T22:10:46.696Z,1.89
2023-11-08T22:13:15.733Z,2.02
2023-11-08T22:15:42.836Z,1.76
2023-11-08T22:18:10.466Z,1.86
2023-11-08T22:20:37.117Z,1.70
2023-11-08T22:23:04.829Z,2.02
2023-11-08T22:25:31.635Z,1.65
2023-11-08T22:28:00.609Z,1.64
2023-11-08T22:30:27.441Z,1.73
2023-11-08T22:32:54.231Z,1.70
2023-11-08T22:35:22.054Z,1.91
2023-11-08T22:37:49.870Z,1.80
2023-11-08T22:40:17.628Z,1.69
2023-11-08T22:42:44.480Z,1.58
2023-11-08T22:45:11.665Z,1.80
2023-11-08T22:47:39.263Z,1.79
2023-11-08T22:50:06.502Z,1.95
2023-11-08T22:52:33.169Z,1.68
2023-11-08T22:55:00.759Z,1.85
2023-11-08T22:57:27.594Z,1.62
2023-11-08T22:59:54.269Z,1.61
2023-11-08T23:02:20.906Z,1.71
2023-11-08T23:04:48.936Z,1.62
2023-11-08T23:07:15.750Z,1.74
2023-11-08T23:09:44.228Z,1.52
2023-11-08T23:12:11.393Z,1.70
2023-11-08T23:14:38.122Z,1.83
2023-11-08T23:17:04.803Z,1.61
2023-11-08T23:19:31.975Z,1.61
2023-11-08T23:21:58.702Z,1.48
2023-11-08T23:24:25.353Z,1.75
2023-11-08T23:26:52.094Z,1.76
2023-11-08T23:29:18.726Z,1.55
2023-11-08T23:31:45.425Z,1.79
2023-11-08T23:34:12.137Z,1.67
2023-11-08T23:36:38.846Z,1.76
2023-11-08T23:39:06.895Z,1.76
2023-11-08T23:41:34.204Z,1.40
2023-11-08T23:44:00.878Z,1.63
2023-11-08T23:46:27.570Z,1.65
2023-11-08T23:48:54.502Z,1.57
2023-11-08T23:51:21.215Z,1.63
2023-11-08T23:53:47.862Z,1.52
2023-11-08T23:56:16.832Z,1.47
2023-11-08T23:58:43.731Z,1.66
